sensor_id;sensor_type;location;lat;lon;timestamp;temperature;humidity
3756;DHT22;1893;52.526;13.360;2024-03-08T00:00:42;2.80;99.90
3756;DHT22;1893;52.526;13.360;2024-03-08T00:03:08;2.70;99.90
3756;DHT22;1893;52.526;13.360;2024-03-08T00:05:35;2.80;99.90
3756;DHT22;1893;52.526;13.360;2024-03-08T00:08:01;2.60;99.90
3756;DHT22;1893;52.526;13.360;2024-03-08T00:10:27;2.60;99.90
3756;DHT22;1893;52.526;13.360;2024-03-08T00:12:54;2.70;99.90
3756;DHT22;1893;52.526;13.360;2024-03-08T00:15:20;2.60;99.90
3756;DHT22;1893;52.526;13.360;2024-03-08T00:17:48;2.70;99.90
3756;DHT22;1893;52.526;13.360;2024-03-08T00:20:15;2.60;99.90
3756;DHT22;1893;52.526;13.360;2024-03-08T00:22:43;2.60;99.90
3756;DHT22;1893;52.526;13.360;2024-03-08T00:25:09;2.60;99.90
3756;DHT22;1893;52.526;13.360;2024-03-08T00:27:34;2.60;99.90
3756;DHT22;1893;52.526;13.360;2024-03-08T00:30:00;2.50;99.90
3756;DHT22;1893;52.526;13.360;2024-03-08T00:32:26;2.50;99.90
3756;DHT22;1893;52.526;13.360;2024-03-08T00:34:57;2.40;99.90
3756;DHT22;1893;52.526;13.360;2024-03-08T00:37:22;2.50;99.90
3756;DHT22;1893;52.526;13.360;2024-03-08T00:39:49;2.40;99.90
3756;DHT22;1893;52.526;13.360;2024-03-08T00:42:18;2.40;99.90
3756;DHT22;1893;52.526;13.360;2024-03-08T00:44:44;2.30;99.90
3756;DHT22;1893;52.526;13.360;2024-03-08T00:47:10;2.30;99.90
3756;DHT22;1893;52.526;13.360;2024-03-08T00:49:36;2.30;99.90
3756;DHT22;1893;52.526;13.360;2024-03-08T00:52:06;2.30;99.90
3756;DHT22;1893;52.526;13.360;2024-03-08T00:54:32;2.30;99.90
3756;DHT22;1893;52.526;13.360;2024-03-08T00:56:58;2.20;99.90
3756;DHT22;1893;52.526;13.360;2024-03-08T00:59:24;2.20;99.90
3756;DHT22;1893;52.526;13.360;2024-03-08T01:01:49;2.20;99.90
3756;DHT22;1893;52.526;13.360;2024-03-08T01:04:15;2.10;99.90
3756;DHT22;1893;52.526;13.360;2024-03-08T01:06:40;2.20;99.90
3756;DHT22;1893;52.526;13.360;2024-03-08T01:09:08;2.20;99.90
3756;DHT22;1893;52.526;13.360;2024-03-08T01:11:34;2.10;99.90
3756;DHT22;1893;52.526;13.360;2024-03-08T01:14:00;2.10;99.90
3756;DHT22;1893;52.526;13.360;2024-03-08T01:16:26;2.10;99.90
3756;DHT22;1893;52.526;13.360;2024-03-08T01:18:52;2.20;99.90
3756;DHT22;1893;52.526;13.360;2024-03-08T01:21:17;2.20;99.90
3756;DHT22;1893;52.526;13.360;2024-03-08T01:23:43;2.20;99.90
3756;DHT22;1893;52.526;13.360;2024-03-08T01:26:08;2.10;99.90
3756;DHT22;1893;52.526;13.360;2024-03-08T01:28:34;2.00;99.90
3756;DHT22;1893;52.526;13.360;2024-03-08T01:31:00;2.00;99.90
3756;DHT22;1893;52.526;13.360;2024-03-08T01:33:26;1.90;99.90
3756;DHT22;1893;52.526;13.360;2024-03-08T01:35:53;1.80;99.90
3756;DHT22;1893;52.526;13.360;2024-03-08T01:38:19;1.90;99.90
3756;DHT22;1893;52.526;13.360;2024-03-08T01:40:46;1.80;99.90
3756;DHT22;1893;52.526;13.360;2024-03-08T01:43:25;1.80;99.90
3756;DHT22;1893;52.526;13.360;2024-03-08T01:45:52;1.80;99.90
3756;DHT22;1893;52.526;13.360;2024-03-08T01:48:19;1.80;99.90
3756;DHT22;1893;52.526;13.360;2024-03-08T01:50:47;1.70;99.90
3756;DHT22;1893;52.526;13.360;2024-03-08T01:53:13;1.70;99.90
3756;DHT22;1893;52.526;13.360;2024-03-08T01:55:40;1.60;99.90
3756;DHT22;1893;52.526;13.360;2024-03-08T01:58:09;1.70;99.90
3756;DHT22;1893;52.526;13.360;2024-03-08T02:00:36;1.60;99.90
3756;DHT22;1893;52.526;13.360;2024-03-08T02:03:05;1.60;99.90
3756;DHT22;1893;52.526;13.360;2024-03-08T02:05:32;1.70;99.90
3756;DHT22;1893;52.526;13.360;2024-03-08T02:07:57;1.60;99.90
3756;DHT22;1893;52.526;13.360;2024-03-08T02:10:23;1.60;99.90
3756;DHT22;1893;52.526;13.360;2024-03-08T02:12:49;1.60;99.90
3756;DHT22;1893;52.526;13.360;2024-03-08T02:15:15;1.60;99.90
3756;DHT22;1893;52.526;13.360;2024-03-08T02:17:40;1.60;99.90
3756;DHT22;1893;52.526;13.360;2024-03-08T02:20:07;1.50;99.90
3756;DHT22;1893;52.526;13.360;2024-03-08T02:22:34;1.60;99.90
3756;DHT22;1893;52.526;13.360;2024-03-08T02:25:00;1.80;99.90
3756;DHT22;1893;52.526;13.360;2024-03-08T02:27:27;1.70;99.90
3756;DHT22;1893;52.526;13.360;2024-03-08T02:29:55;1.70;99.90
3756;DHT22;1893;52.526;13.360;2024-03-08T02:32:25;1.70;99.90
3756;DHT22;1893;52.526;13.360;2024-03-08T02:34:50;1.60;99.90
3756;DHT22;1893;52.526;13.360;2024-03-08T02:37:17;1.60;99.90
3756;DHT22;1893;52.526;13.360;2024-03-08T02:39:43;1.60;99.90
3756;DHT22;1893;52.526;13.360;2024-03-08T02:42:08;1.60;99.90
3756;DHT22;1893;52.526;13.360;2024-03-08T02:44:34;1.50;99.90
3756;DHT22;1893;52.526;13.360;2024-03-08T02:47:00;1.40;99.90
3756;DHT22;1893;52.526;13.360;2024-03-08T02:49:26;1.40;99.90
3756;DHT22;1893;52.526;13.360;2024-03-08T02:51:52;1.40;99.90
3756;DHT22;1893;52.526;13.360;2024-03-08T02:54:19;1.50;99.90
3756;DHT22;1893;52.526;13.360;2024-03-08T02:56:45;1.50;99.90
3756;DHT22;1893;52.526;13.360;2024-03-08T02:59:14;1.40;99.90
3756;DHT22;1893;52.526;13.360;2024-03-08T03:01:42;1.50;99.90
3756;DHT22;1893;52.526;13.360;2024-03-08T03:04:08;1.40;99.90
3756;DHT22;1893;52.526;13.360;2024-03-08T03:06:34;1.40;99.90
3756;DHT22;1893;52.526;13.360;2024-03-08T03:08:59;1.40;99.90
3756;DHT22;1893;52.526;13.360;2024-03-08T03:11:25;1.40;99.90
3756;DHT22;1893;52.526;13.360;2024-03-08T03:13:50;1.30;99.90
3756;DHT22;1893;52.526;13.360;2024-03-08T03:16:19;1.40;99.90
3756;DHT22;1893;52.526;13.360;2024-03-08T03:18:46;1.30;99.90
3756;DHT22;1893;52.526;13.360;2024-03-08T03:21:12;1.30;99.90
3756;DHT22;1893;52.526;13.360;2024-03-08T03:23:39;1.40;99.90
3756;DHT22;1893;52.526;13.360;2024-03-08T03:26:05;1.30;99.90
3756;DHT22;1893;52.526;13.360;2024-03-08T03:28:32;1.40;99.90
3756;DHT22;1893;52.526;13.360;2024-03-08T03:30:59;1.20;99.90
3756;DHT22;1893;52.526;13.360;2024-03-08T03:33:25;1.20;99.90
3756;DHT22;1893;52.526;13.360;2024-03-08T03:35:50;1.10;99.90
3756;DHT22;1893;52.526;13.360;2024-03-08T03:38:17;1.30;99.90
3756;DHT22;1893;52.526;13.360;2024-03-08T03:40:45;1.30;99.90
3756;DHT22;1893;52.526;13.360;2024-03-08T03:43:11;1.30;99.90
3756;DHT22;1893;52.526;13.360;2024-03-08T03:45:38;1.30;99.90
3756;DHT22;1893;52.526;13.360;2024-03-08T03:48:06;1.30;99.90
3756;DHT22;1893;52.526;13.360;2024-03-08T03:50:35;1.30;99.90
3756;DHT22;1893;52.526;13.360;2024-03-08T03:53:01;1.30;99.90
3756;DHT22;1893;52.526;13.360;2024-03-08T03:55:28;1.30;99.90
3756;DHT22;1893;52.526;13.360;2024-03-08T03:57:54;1.30;99.90
3756;DHT22;1893;52.526;13.360;2024-03-08T04:00:20;1.20;99.90
3756;DHT22;1893;52.526;13.360;2024-03-08T04:02:45;1.30;99.90
3756;DHT22;1893;52.526;13.360;2024-03-08T04:05:12;1.30;99.90
3756;DHT22;1893;52.526;13.360;2024-03-08T04:07:38;1.20;99.90
3756;DHT22;1893;52.526;13.360;2024-03-08T04:10:06;1.20;99.90
3756;DHT22;1893;52.526;13.360;2024-03-08T04:12:35;1.10;99.90
3756;DHT22;1893;52.526;13.360;2024-03-08T04:15:01;1.10;99.90
3756;DHT22;1893;52.526;13.360;2024-03-08T04:17:26;1.20;99.90
3756;DHT22;1893;52.526;13.360;2024-03-08T04:19:53;1.20;99.90
3756;DHT22;1893;52.526;13.360;2024-03-08T04:22:19;1.20;99.90
3756;DHT22;1893;52.526;13.360;2024-03-08T04:24:45;1.20;99.90
3756;DHT22;1893;52.526;13.360;2024-03-08T04:27:11;1.00;99.90
3756;DHT22;1893;52.526;13.360;2024-03-08T04:29:37;1.20;99.90
3756;DHT22;1893;52.526;13.360;2024-03-08T04:32:06;1.20;99.90
3756;DHT22;1893;52.526;13.360;2024-03-08T04:34:35;1.10;99.90
3756;DHT22;1893;52.526;13.360;2024-03-08T04:37:01;1.10;99.90
3756;DHT22;1893;52.526;13.360;2024-03-08T04:39:27;1.10;99.90
3756;DHT22;1893;52.526;13.360;2024-03-08T04:42:00;1.10;99.90
3756;DHT22;1893;52.526;13.360;2024-03-08T04:44:28;1.10;99.90
3756;DHT22;1893;52.526;13.360;2024-03-08T04:46:54;1.20;99.90
3756;DHT22;1893;52.526;13.360;2024-03-08T04:49:20;1.10;99.90
3756;DHT22;1893;52.526;13.360;2024-03-08T04:51:47;1.10;99.90
3756;DHT22;1893;52.526;13.360;2024-03-08T04:54:12;1.10;99.90
3756;DHT22;1893;52.526;13.360;2024-03-08T04:56:39;1.00;99.90
3756;DHT22;1893;52.526;13.360;2024-03-08T04:59:04;1.00;99.90
3756;DHT22;1893;52.526;13.360;2024-03-08T05:01:34;1.00;99.90
3756;DHT22;1893;52.526;13.360;2024-03-08T05:04:01;1.00;99.90
3756;DHT22;1893;52.526;13.360;2024-03-08T05:06:27;1.00;99.90
3756;DHT22;1893;52.526;13.360;2024-03-08T05:08:54;1.00;99.90
3756;DHT22;1893;52.526;13.360;2024-03-08T05:11:19;1.10;99.90
3756;DHT22;1893;52.526;13.360;2024-03-08T05:13:45;1.20;99.90
3756;DHT22;1893;52.526;13.360;2024-03-08T05:16:11;1.10;99.90
3756;DHT22;1893;52.526;13.360;2024-03-08T05:18:37;1.10;99.90
3756;DHT22;1893;52.526;13.360;2024-03-08T05:21:02;1.10;99.90
3756;DHT22;1893;52.526;13.360;2024-03-08T05:23:30;1.10;99.90
3756;DHT22;1893;52.526;13.360;2024-03-08T05:25:55;1.00;99.90
3756;DHT22;1893;52.526;13.360;2024-03-08T05:28:21;1.00;99.90
3756;DHT22;1893;52.526;13.360;2024-03-08T05:30:46;1.00;99.90
3756;DHT22;1893;52.526;13.360;2024-03-08T05:33:12;1.20;99.90
3756;DHT22;1893;52.526;13.360;2024-03-08T05:35:40;1.00;99.90
3756;DHT22;1893;52.526;13.360;2024-03-08T05:38:05;1.00;99.90
3756;DHT22;1893;52.526;13.360;2024-03-08T05:40:32;1.10;99.90
3756;DHT22;1893;52.526;13.360;2024-03-08T05:43:00;1.00;99.90
3756;DHT22;1893;52.526;13.360;2024-03-08T05:45:26;1.00;99.90
3756;DHT22;1893;52.526;13.360;2024-03-08T05:47:52;1.00;99.90
3756;DHT22;1893;52.526;13.360;2024-03-08T05:50:18;1.10;99.90
3756;DHT22;1893;52.526;13.360;2024-03-08T05:52:45;1.10;99.90
3756;DHT22;1893;52.526;13.360;2024-03-08T05:55:10;1.20;99.90
3756;DHT22;1893;52.526;13.360;2024-03-08T05:57:40;1.10;99.90
3756;DHT22;1893;52.526;13.360;2024-03-08T06:00:06;1.10;99.90
3756;DHT22;1893;52.526;13.360;2024-03-08T06:02:32;1.10;99.90
3756;DHT22;1893;52.526;13.360;2024-03-08T06:04:58;1.20;99.90
3756;DHT22;1893;52.526;13.360;2024-03-08T06:07:23;1.10;99.90
3756;DHT22;1893;52.526;13.360;2024-03-08T06:09:49;1.10;99.90
3756;DHT22;1893;52.526;13.360;2024-03-08T06:12:15;1.10;99.90
3756;DHT22;1893;52.526;13.360;2024-03-08T06:14:45;1.00;99.90
3756;DHT22;1893;52.526;13.360;2024-03-08T06:17:10;1.10;99.90
3756;DHT22;1893;52.526;13.360;2024-03-08T06:19:36;1.10;99.90
3756;DHT22;1893;52.526;13.360;2024-03-08T06:22:02;1.30;99.90
3756;DHT22;1893;52.526;13.360;2024-03-08T06:24:31;1.20;99.90
3756;DHT22;1893;52.526;13.360;2024-03-08T06:26:57;1.30;99.90
3756;DHT22;1893;52.526;13.360;2024-03-08T06:29:22;1.30;99.90
3756;DHT22;1893;52.526;13.360;2024-03-08T06:31:49;1.40;99.90
3756;DHT22;1893;52.526;13.360;2024-03-08T06:34:15;1.60;99.90
3756;DHT22;1893;52.526;13.360;2024-03-08T06:36:41;1.70;99.90
3756;DHT22;1893;52.526;13.360;2024-03-08T06:39:06;1.80;99.90
3756;DHT22;1893;52.526;13.360;2024-03-08T06:41:36;2.00;99.90
3756;DHT22;1893;52.526;13.360;2024-03-08T06:44:01;2.30;99.90
3756;DHT22;1893;52.526;13.360;2024-03-08T06:46:27;2.70;99.90
3756;DHT22;1893;52.526;13.360;2024-03-08T06:48:53;3.10;99.90
3756;DHT22;1893;52.526;13.360;2024-03-08T06:51:19;3.20;99.90
3756;DHT22;1893;52.526;13.360;2024-03-08T06:53:45;3.50;99.90
3756;DHT22;1893;52.526;13.360;2024-03-08T06:56:10;3.90;99.90
3756;DHT22;1893;52.526;13.360;2024-03-08T06:58:36;4.10;99.90
3756;DHT22;1893;52.526;13.360;2024-03-08T07:01:02;4.30;99.90
3756;DHT22;1893;52.526;13.360;2024-03-08T07:03:33;4.50;99.90
3756;DHT22;1893;52.526;13.360;2024-03-08T07:05:58;4.80;99.90
3756;DHT22;1893;52.526;13.360;2024-03-08T07:08:24;5.00;99.90
3756;DHT22;1893;52.526;13.360;2024-03-08T07:10:52;5.30;99.90
3756;DHT22;1893;52.526;13.360;2024-03-08T07:13:18;5.30;99.90
3756;DHT22;1893;52.526;13.360;2024-03-08T07:15:44;5.10;99.90
3756;DHT22;1893;52.526;13.360;2024-03-08T07:18:11;5.30;99.90
3756;DHT22;1893;52.526;13.360;2024-03-08T07:20:40;5.40;99.90
3756;DHT22;1893;52.526;13.360;2024-03-08T07:23:06;5.80;99.90
3756;DHT22;1893;52.526;13.360;2024-03-08T07:25:31;5.80;99.90
3756;DHT22;1893;52.526;13.360;2024-03-08T07:27:57;5.60;99.90
3756;DHT22;1893;52.526;13.360;2024-03-08T07:30:26;5.60;99.90
3756;DHT22;1893;52.526;13.360;2024-03-08T07:33:11;5.70;99.90
3756;DHT22;1893;52.526;13.360;2024-03-08T07:35:39;6.00;99.90
3756;DHT22;1893;52.526;13.360;2024-03-08T07:38:06;5.90;99.90
3756;DHT22;1893;52.526;13.360;2024-03-08T07:40:37;5.90;99.90
3756;DHT22;1893;52.526;13.360;2024-03-08T07:43:08;5.80;99.90
3756;DHT22;1893;52.526;13.360;2024-03-08T07:45:34;6.10;99.90
3756;DHT22;1893;52.526;13.360;2024-03-08T07:48:01;6.10;99.90
3756;DHT22;1893;52.526;13.360;2024-03-08T07:50:28;6.40;99.90
3756;DHT22;1893;52.526;13.360;2024-03-08T07:52:54;6.60;99.90
3756;DHT22;1893;52.526;13.360;2024-03-08T07:55:20;6.70;99.90
3756;DHT22;1893;52.526;13.360;2024-03-08T07:57:45;6.50;99.90
3756;DHT22;1893;52.526;13.360;2024-03-08T08:00:13;6.90;99.90
3756;DHT22;1893;52.526;13.360;2024-03-08T08:02:46;6.60;99.90
3756;DHT22;1893;52.526;13.360;2024-03-08T08:05:12;6.50;99.90
3756;DHT22;1893;52.526;13.360;2024-03-08T08:07:37;6.60;99.90
3756;DHT22;1893;52.526;13.360;2024-03-08T08:10:03;6.70;99.90
3756;DHT22;1893;52.526;13.360;2024-03-08T08:12:31;6.90;99.90
3756;DHT22;1893;52.526;13.360;2024-03-08T08:14:59;7.00;99.90
3756;DHT22;1893;52.526;13.360;2024-03-08T08:17:25;7.10;99.90
3756;DHT22;1893;52.526;13.360;2024-03-08T08:19:51;7.00;99.90
3756;DHT22;1893;52.526;13.360;2024-03-08T08:22:16;6.60;99.90
3756;DHT22;1893;52.526;13.360;2024-03-08T08:24:43;6.50;99.90
3756;DHT22;1893;52.526;13.360;2024-03-08T08:27:09;6.80;99.90
3756;DHT22;1893;52.526;13.360;2024-03-08T08:29:34;7.00;99.90
3756;DHT22;1893;52.526;13.360;2024-03-08T08:32:00;7.30;99.90
3756;DHT22;1893;52.526;13.360;2024-03-08T08:34:26;7.30;99.90
3756;DHT22;1893;52.526;13.360;2024-03-08T08:36:52;7.30;99.90
3756;DHT22;1893;52.526;13.360;2024-03-08T08:39:18;7.30;99.90
3756;DHT22;1893;52.526;13.360;2024-03-08T08:41:44;7.50;99.90
3756;DHT22;1893;52.526;13.360;2024-03-08T08:44:10;7.60;99.90
3756;DHT22;1893;52.526;13.360;2024-03-08T08:46:38;7.50;99.90
3756;DHT22;1893;52.526;13.360;2024-03-08T08:49:04;7.50;99.90
3756;DHT22;1893;52.526;13.360;2024-03-08T08:51:30;7.80;99.90
3756;DHT22;1893;52.526;13.360;2024-03-08T08:53:56;7.90;99.90
3756;DHT22;1893;52.526;13.360;2024-03-08T08:56:22;8.10;99.90
3756;DHT22;1893;52.526;13.360;2024-03-08T08:58:48;7.90;99.90
3756;DHT22;1893;52.526;13.360;2024-03-08T09:01:14;7.80;99.90
3756;DHT22;1893;52.526;13.360;2024-03-08T09:03:40;8.00;99.90
3756;DHT22;1893;52.526;13.360;2024-03-08T09:06:07;7.80;99.90
3756;DHT22;1893;52.526;13.360;2024-03-08T09:08:39;7.70;99.90
3756;DHT22;1893;52.526;13.360;2024-03-08T09:11:04;7.70;99.90
3756;DHT22;1893;52.526;13.360;2024-03-08T09:13:31;8.20;99.90
3756;DHT22;1893;52.526;13.360;2024-03-08T09:15:57;8.80;99.90
3756;DHT22;1893;52.526;13.360;2024-03-08T09:18:23;8.80;99.90
3756;DHT22;1893;52.526;13.360;2024-03-08T09:20:49;9.30;99.90
3756;DHT22;1893;52.526;13.360;2024-03-08T09:23:15;9.20;99.90
3756;DHT22;1893;52.526;13.360;2024-03-08T09:25:42;8.90;99.90
3756;DHT22;1893;52.526;13.360;2024-03-08T09:28:09;9.10;99.90
3756;DHT22;1893;52.526;13.360;2024-03-08T09:30:37;9.00;99.90
3756;DHT22;1893;52.526;13.360;2024-03-08T09:33:03;9.40;99.90
3756;DHT22;1893;52.526;13.360;2024-03-08T09:35:29;9.00;99.90
3756;DHT22;1893;52.526;13.360;2024-03-08T09:37:55;9.10;99.90
3756;DHT22;1893;52.526;13.360;2024-03-08T09:40:21;9.10;99.90
3756;DHT22;1893;52.526;13.360;2024-03-08T09:42:49;9.70;99.90
3756;DHT22;1893;52.526;13.360;2024-03-08T09:45:17;10.30;99.90
3756;DHT22;1893;52.526;13.360;2024-03-08T09:47:44;10.40;99.90
3756;DHT22;1893;52.526;13.360;2024-03-08T09:50:10;10.40;98.60
3756;DHT22;1893;52.526;13.360;2024-03-08T09:52:41;10.40;98.90
3756;DHT22;1893;52.526;13.360;2024-03-08T09:55:10;10.60;97.40
3756;DHT22;1893;52.526;13.360;2024-03-08T09:57:39;10.80;96.50
3756;DHT22;1893;52.526;13.360;2024-03-08T10:00:06;11.10;96.30
3756;DHT22;1893;52.526;13.360;2024-03-08T10:02:45;10.80;95.80
3756;DHT22;1893;52.526;13.360;2024-03-08T10:05:12;10.60;96.00
3756;DHT22;1893;52.526;13.360;2024-03-08T10:07:38;10.60;95.70
3756;DHT22;1893;52.526;13.360;2024-03-08T10:10:04;11.10;95.50
3756;DHT22;1893;52.526;13.360;2024-03-08T10:12:29;11.10;94.10
3756;DHT22;1893;52.526;13.360;2024-03-08T10:14:58;11.30;93.30
3756;DHT22;1893;52.526;13.360;2024-03-08T10:17:24;11.20;93.30
3756;DHT22;1893;52.526;13.360;2024-03-08T10:19:51;11.30;92.40
3756;DHT22;1893;52.526;13.360;2024-03-08T10:22:19;11.40;92.90
3756;DHT22;1893;52.526;13.360;2024-03-08T10:24:48;11.70;92.00
3756;DHT22;1893;52.526;13.360;2024-03-08T10:27:16;12.70;92.20
3756;DHT22;1893;52.526;13.360;2024-03-08T10:29:42;12.70;90.40
3756;DHT22;1893;52.526;13.360;2024-03-08T10:32:10;13.20;90.30
3756;DHT22;1893;52.526;13.360;2024-03-08T10:34:35;12.80;86.50
3756;DHT22;1893;52.526;13.360;2024-03-08T10:37:04;12.10;87.00
3756;DHT22;1893;52.526;13.360;2024-03-08T10:39:36;12.30;83.80
3756;DHT22;1893;52.526;13.360;2024-03-08T10:42:04;12.20;83.80
3756;DHT22;1893;52.526;13.360;2024-03-08T10:47:08;13.20;85.00
3756;DHT22;1893;52.526;13.360;2024-03-08T10:49:51;13.00;81.10
3756;DHT22;1893;52.526;13.360;2024-03-08T10:52:19;13.20;81.10
3756;DHT22;1893;52.526;13.360;2024-03-08T10:54:47;13.30;80.00
3756;DHT22;1893;52.526;13.360;2024-03-08T10:57:17;13.20;78.50
3756;DHT22;1893;52.526;13.360;2024-03-08T10:59:43;13.20;76.80
3756;DHT22;1893;52.526;13.360;2024-03-08T11:02:11;13.80;78.60
3756;DHT22;1893;52.526;13.360;2024-03-08T11:04:37;13.70;74.20
3756;DHT22;1893;52.526;13.360;2024-03-08T11:07:03;13.70;73.90
3756;DHT22;1893;52.526;13.360;2024-03-08T11:09:36;13.70;73.50
3756;DHT22;1893;52.526;13.360;2024-03-08T11:14:48;14.10;69.10
3756;DHT22;1893;52.526;13.360;2024-03-08T11:17:16;13.30;67.80
3756;DHT22;1893;52.526;13.360;2024-03-08T11:19:47;13.30;69.90
3756;DHT22;1893;52.526;13.360;2024-03-08T11:22:22;14.00;68.90
3756;DHT22;1893;52.526;13.360;2024-03-08T11:24:52;14.60;66.70
3756;DHT22;1893;52.526;13.360;2024-03-08T11:27:18;13.90;64.60
3756;DHT22;1893;52.526;13.360;2024-03-08T11:30:08;14.50;64.20
3756;DHT22;1893;52.526;13.360;2024-03-08T11:32:37;14.90;64.50
3756;DHT22;1893;52.526;13.360;2024-03-08T11:35:07;15.30;62.80
3756;DHT22;1893;52.526;13.360;2024-03-08T11:37:34;15.90;61.20
3756;DHT22;1893;52.526;13.360;2024-03-08T11:40:01;16.10;58.40
3756;DHT22;1893;52.526;13.360;2024-03-08T11:42:30;15.70;57.00
3756;DHT22;1893;52.526;13.360;2024-03-08T11:44:56;15.40;56.70
3756;DHT22;1893;52.526;13.360;2024-03-08T11:47:22;15.60;58.40
3756;DHT22;1893;52.526;13.360;2024-03-08T11:49:47;15.70;56.50
3756;DHT22;1893;52.526;13.360;2024-03-08T11:52:16;15.50;54.80
3756;DHT22;1893;52.526;13.360;2024-03-08T11:55:02;15.90;55.30
3756;DHT22;1893;52.526;13.360;2024-03-08T11:57:28;16.20;55.60
3756;DHT22;1893;52.526;13.360;2024-03-08T11:59:55;16.90;55.00
3756;DHT22;1893;52.526;13.360;2024-03-08T12:02:31;16.90;54.50
3756;DHT22;1893;52.526;13.360;2024-03-08T12:04:58;16.00;51.90
3756;DHT22;1893;52.526;13.360;2024-03-08T12:07:29;15.40;54.00
3756;DHT22;1893;52.526;13.360;2024-03-08T12:12:47;16.00;54.30
3756;DHT22;1893;52.526;13.360;2024-03-08T12:15:19;14.30;52.60
3756;DHT22;1893;52.526;13.360;2024-03-08T12:17:49;14.60;54.00
3756;DHT22;1893;52.526;13.360;2024-03-08T12:20:23;15.30;53.20
3756;DHT22;1893;52.526;13.360;2024-03-08T12:22:50;15.00;52.80
3756;DHT22;1893;52.526;13.360;2024-03-08T12:25:18;15.40;52.30
3756;DHT22;1893;52.526;13.360;2024-03-08T12:27:44;15.90;53.20
3756;DHT22;1893;52.526;13.360;2024-03-08T12:30:26;14.80;52.80
3756;DHT22;1893;52.526;13.360;2024-03-08T12:33:01;15.30;52.40
3756;DHT22;1893;52.526;13.360;2024-03-08T12:35:28;15.30;51.80
3756;DHT22;1893;52.526;13.360;2024-03-08T12:37:58;15.10;51.10
3756;DHT22;1893;52.526;13.360;2024-03-08T12:40:29;15.80;54.10
3756;DHT22;1893;52.526;13.360;2024-03-08T12:42:55;16.30;51.80
3756;DHT22;1893;52.526;13.360;2024-03-08T12:45:22;16.00;52.30
3756;DHT22;1893;52.526;13.360;2024-03-08T12:47:50;15.90;50.80
3756;DHT22;1893;52.526;13.360;2024-03-08T12:50:16;15.40;50.30
3756;DHT22;1893;52.526;13.360;2024-03-08T12:52:43;14.90;49.20
3756;DHT22;1893;52.526;13.360;2024-03-08T12:55:09;14.40;49.50
3756;DHT22;1893;52.526;13.360;2024-03-08T12:57:37;14.50;51.70
3756;DHT22;1893;52.526;13.360;2024-03-08T13:00:04;14.50;50.30
3756;DHT22;1893;52.526;13.360;2024-03-08T13:02:30;14.80;50.60
3756;DHT22;1893;52.526;13.360;2024-03-08T13:04:58;14.80;49.90
3756;DHT22;1893;52.526;13.360;2024-03-08T13:07:24;14.40;49.50
3756;DHT22;1893;52.526;13.360;2024-03-08T13:09:54;14.50;49.90
3756;DHT22;1893;52.526;13.360;2024-03-08T13:12:21;15.00;50.10
3756;DHT22;1893;52.526;13.360;2024-03-08T13:14:47;14.60;51.40
3756;DHT22;1893;52.526;13.360;2024-03-08T13:17:16;14.90;49.20
3756;DHT22;1893;52.526;13.360;2024-03-08T13:19:44;14.60;49.20
3756;DHT22;1893;52.526;13.360;2024-03-08T13:22:10;14.80;49.70
3756;DHT22;1893;52.526;13.360;2024-03-08T13:24:42;15.20;49.00
3756;DHT22;1893;52.526;13.360;2024-03-08T13:27:08;15.80;49.70
3756;DHT22;1893;52.526;13.360;2024-03-08T13:29:48;14.90;48.80
3756;DHT22;1893;52.526;13.360;2024-03-08T13:32:15;14.80;49.20
3756;DHT22;1893;52.526;13.360;2024-03-08T13:34:42;14.40;49.60
3756;DHT22;1893;52.526;13.360;2024-03-08T13:37:08;14.70;48.90
3756;DHT22;1893;52.526;13.360;2024-03-08T13:39:35;15.00;49.10
3756;DHT22;1893;52.526;13.360;2024-03-08T13:42:11;15.10;48.50
3756;DHT22;1893;52.526;13.360;2024-03-08T13:44:48;14.80;48.30
3756;DHT22;1893;52.526;13.360;2024-03-08T13:47:15;14.60;47.80
3756;DHT22;1893;52.526;13.360;2024-03-08T13:49:41;14.40;48.50
3756;DHT22;1893;52.526;13.360;2024-03-08T13:52:09;13.70;48.60
3756;DHT22;1893;52.526;13.360;2024-03-08T13:54:36;14.60;49.10
3756;DHT22;1893;52.526;13.360;2024-03-08T13:57:01;14.80;48.70
3756;DHT22;1893;52.526;13.360;2024-03-08T13:59:33;14.60;49.10
3756;DHT22;1893;52.526;13.360;2024-03-08T14:02:01;14.60;48.10
3756;DHT22;1893;52.526;13.360;2024-03-08T14:04:30;14.30;47.90
3756;DHT22;1893;52.526;13.360;2024-03-08T14:06:56;14.20;48.20
3756;DHT22;1893;52.526;13.360;2024-03-08T14:09:25;14.20;47.70
3756;DHT22;1893;52.526;13.360;2024-03-08T14:11:55;14.60;48.70
3756;DHT22;1893;52.526;13.360;2024-03-08T14:14:23;14.00;47.20
3756;DHT22;1893;52.526;13.360;2024-03-08T14:16:50;14.30;48.40
3756;DHT22;1893;52.526;13.360;2024-03-08T14:19:19;13.90;48.00
3756;DHT22;1893;52.526;13.360;2024-03-08T14:21:46;13.50;47.90
3756;DHT22;1893;52.526;13.360;2024-03-08T14:24:16;13.20;48.80
3756;DHT22;1893;52.526;13.360;2024-03-08T14:26:42;12.70;48.70
3756;DHT22;1893;52.526;13.360;2024-03-08T14:29:08;12.30;49.20
3756;DHT22;1893;52.526;13.360;2024-03-08T14:31:36;12.40;49.10
3756;DHT22;1893;52.526;13.360;2024-03-08T14:34:02;12.60;48.60
3756;DHT22;1893;52.526;13.360;2024-03-08T14:36:29;12.40;49.90
3756;DHT22;1893;52.526;13.360;2024-03-08T14:38:55;12.40;50.90
3756;DHT22;1893;52.526;13.360;2024-03-08T14:41:20;12.20;51.60
3756;DHT22;1893;52.526;13.360;2024-03-08T14:43:47;11.50;50.30
3756;DHT22;1893;52.526;13.360;2024-03-08T14:46:14;11.00;51.60
3756;DHT22;1893;52.526;13.360;2024-03-08T14:48:46;10.70;52.30
3756;DHT22;1893;52.526;13.360;2024-03-08T14:51:13;10.40;53.20
3756;DHT22;1893;52.526;13.360;2024-03-08T14:53:43;10.30;53.50
3756;DHT22;1893;52.526;13.360;2024-03-08T14:56:11;10.20;53.60
3756;DHT22;1893;52.526;13.360;2024-03-08T14:58:42;10.20;53.30
3756;DHT22;1893;52.526;13.360;2024-03-08T15:01:13;10.30;54.60
3756;DHT22;1893;52.526;13.360;2024-03-08T15:03:40;10.20;54.60
3756;DHT22;1893;52.526;13.360;2024-03-08T15:06:05;10.20;54.80
3756;DHT22;1893;52.526;13.360;2024-03-08T15:08:41;10.20;54.80
3756;DHT22;1893;52.526;13.360;2024-03-08T15:11:07;10.00;54.80
3756;DHT22;1893;52.526;13.360;2024-03-08T15:13:34;10.00;53.30
3756;DHT22;1893;52.526;13.360;2024-03-08T15:16:08;10.00;53.10
3756;DHT22;1893;52.526;13.360;2024-03-08T15:18:35;10.00;53.30
3756;DHT22;1893;52.526;13.360;2024-03-08T15:21:05;10.00;53.70
3756;DHT22;1893;52.526;13.360;2024-03-08T15:23:36;9.90;54.10
3756;DHT22;1893;52.526;13.360;2024-03-08T15:26:03;9.90;53.00
3756;DHT22;1893;52.526;13.360;2024-03-08T15:28:33;9.90;53.10
3756;DHT22;1893;52.526;13.360;2024-03-08T15:31:06;9.90;53.80
3756;DHT22;1893;52.526;13.360;2024-03-08T15:33:36;9.80;53.90
3756;DHT22;1893;52.526;13.360;2024-03-08T15:36:14;9.70;53.50
3756;DHT22;1893;52.526;13.360;2024-03-08T15:38:41;9.60;53.90
3756;DHT22;1893;52.526;13.360;2024-03-08T15:41:09;9.60;54.00
3756;DHT22;1893;52.526;13.360;2024-03-08T15:43:39;9.50;54.50
3756;DHT22;1893;52.526;13.360;2024-03-08T15:46:05;9.40;55.20
3756;DHT22;1893;52.526;13.360;2024-03-08T15:48:35;9.50;54.70
3756;DHT22;1893;52.526;13.360;2024-03-08T15:51:02;9.40;55.20
3756;DHT22;1893;52.526;13.360;2024-03-08T15:53:33;9.40;55.60
3756;DHT22;1893;52.526;13.360;2024-03-08T15:56:00;9.40;55.70
3756;DHT22;1893;52.526;13.360;2024-03-08T15:58:28;9.30;56.00
3756;DHT22;1893;52.526;13.360;2024-03-08T16:00:55;9.30;56.00
3756;DHT22;1893;52.526;13.360;2024-03-08T16:03:22;9.30;56.30
3756;DHT22;1893;52.526;13.360;2024-03-08T16:05:48;9.20;56.30